Terminal Aerodrome Forecast
Issued by NWS

Home | Current Version | Previous Version | Text Only | Print | Product List | Glossary On
Versions: 1 2 3 4 5 6 7 8 9 10 11 12
396
FTUS43 KICT 062342
TAFSLN
TAF
KSLN 062342Z 0700/0724 18013KT P6SM BKN300
     FM070500 18009KT P6SM BKN300 WS020/20040KT
     FM071400 20013KT P6SM BKN300=

USA.gov is the U.S. government's official web portal to all federal, state and local government web resources and services.